createdAt,value
2023-05-14T00:01:02.914Z,32
2023-05-14T00:06:19.686Z,32
2023-05-14T00:11:36.509Z,32
2023-05-14T00:16:52.038Z,32
2023-05-14T00:22:07.529Z,32
2023-05-14T00:27:22.406Z,32
2023-05-14T00:32:38.684Z,32
2023-05-14T00:37:55.380Z,32
2023-05-14T00:43:11.532Z,32
2023-05-14T00:48:27.047Z,32
2023-05-14T00:53:43.253Z,32
2023-05-14T01:41:10.843Z,32
2023-05-14T01:46:19.895Z,32
2023-05-14T01:51:35.865Z,32
2023-05-14T01:56:52.031Z,32
2023-05-14T02:02:08.148Z,32
2023-05-14T02:07:23.050Z,33
2023-05-14T02:12:38.560Z,33
2023-05-14T02:17:54.879Z,33
2023-05-14T02:23:10.881Z,33
2023-05-14T02:28:25.766Z,33
2023-05-14T02:33:42.184Z,33
2023-05-14T02:38:57.462Z,33
2023-05-14T02:44:12.325Z,33
2023-05-14T02:49:27.861Z,33
2023-05-14T02:54:43.421Z,33
2023-05-14T02:59:59.235Z,33
2023-05-14T03:05:13.805Z,33
2023-05-14T03:10:28.654Z,33
2023-05-14T03:15:44.829Z,33
2023-05-14T03:21:01.024Z,33
2023-05-14T03:26:15.841Z,33
2023-05-14T03:31:32.012Z,33
2023-05-14T03:36:47.566Z,33
2023-05-14T03:42:02.442Z,33
2023-05-14T03:47:18.579Z,33
2023-05-14T03:52:34.809Z,33
2023-05-14T03:57:49.599Z,33
2023-05-14T04:03:06.133Z,33
2023-05-14T04:08:21.956Z,33
2023-05-14T04:13:38.751Z,33
2023-05-14T04:18:55.030Z,33
2023-05-14T04:24:10.405Z,33
2023-05-14T04:29:26.607Z,33
2023-05-14T04:34:41.515Z,33
2023-05-14T04:39:58.232Z,34
2023-05-14T04:45:13.786Z,34
2023-05-14T04:50:29.277Z,34
2023-05-14T04:55:44.184Z,34
2023-05-14T05:01:00.615Z,34
2023-05-14T05:53:39.367Z,35
2023-05-14T05:58:54.267Z,35
2023-05-14T06:04:09.800Z,35
2023-05-14T06:09:24.640Z,35
2023-05-14T06:14:39.590Z,35
2023-05-14T06:19:55.703Z,35
2023-05-14T06:25:11.862Z,35
2023-05-14T06:30:28.004Z,35
2023-05-14T06:35:44.197Z,35
2023-05-14T06:41:01.221Z,35
2023-05-14T06:46:17.766Z,36
2023-05-14T06:51:33.286Z,36
2023-05-14T06:56:48.878Z,36
2023-05-14T07:36:45.515Z,33
2023-05-14T07:41:55.362Z,33
2023-05-14T07:47:10.361Z,32
2023-05-14T12:05:24.021Z,15
2023-05-14T12:10:39.515Z,15
2023-05-14T12:15:55.812Z,15
2023-05-14T12:21:12.487Z,15
2023-05-14T12:26:28.034Z,15
2023-05-14T12:31:43.096Z,15
2023-05-14T12:36:58.530Z,16
2023-05-14T13:29:36.505Z,16
2023-05-14T13:34:45.301Z,15
2023-05-14T13:40:02.095Z,15
2023-05-14T13:45:17.608Z,16
2023-05-14T13:50:35.034Z,16
2023-05-14T13:55:50.794Z,16
2023-05-14T14:01:05.478Z,16
2023-05-14T14:06:20.973Z,16
2023-05-14T14:11:36.484Z,16
2023-05-14T14:16:51.360Z,16
2023-05-14T14:22:06.386Z,16
2023-05-14T14:27:21.111Z,16
2023-05-14T14:32:37.375Z,16
2023-05-14T14:37:52.847Z,16
2023-05-14T14:43:07.744Z,16
2023-05-14T14:48:23.222Z,15
2023-05-14T14:53:37.450Z,16
2023-05-14T14:58:52.360Z,16
2023-05-14T15:04:07.837Z,16
2023-05-14T15:09:24.018Z,16
2023-05-14T15:14:38.930Z,16
2023-05-14T15:19:54.460Z,16
2023-05-14T15:25:09.330Z,16
2023-05-14T15:30:26.112Z,16
2023-05-14T15:35:42.246Z,17
2023-05-14T15:40:58.404Z,16
2023-05-14T15:46:14.721Z,16
2023-05-14T15:51:30.092Z,16
2023-05-14T15:56:46.239Z,16
2023-05-14T16:02:01.350Z,16
2023-05-14T16:07:16.027Z,16
2023-05-14T16:12:31.562Z,16
2023-05-14T16:17:47.159Z,16
2023-05-14T16:23:01.946Z,16
2023-05-14T16:28:17.490Z,16
2023-05-14T16:33:32.979Z,16
2023-05-14T16:39:08.658Z,17
2023-05-14T16:44:04.701Z,17
2023-05-14T16:49:20.801Z,17
2023-05-14T16:54:35.675Z,17
2023-05-14T17:16:24.019Z,17
2023-05-14T17:21:40.015Z,17
2023-05-14T17:26:55.538Z,17
2023-05-14T17:32:12.416Z,17
2023-05-14T17:37:27.827Z,17
2023-05-14T17:42:42.732Z,17
2023-05-14T17:47:59.008Z,17
2023-05-14T17:53:15.043Z,17
2023-05-14T17:58:30.594Z,17
2023-05-14T18:03:45.602Z,17
2023-05-14T18:09:01.605Z,17
2023-05-14T18:14:16.515Z,17
2023-05-14T18:19:31.996Z,18
2023-05-14T18:24:47.545Z,18
2023-05-14T18:30:04.378Z,18
2023-05-14T18:35:19.872Z,19
2023-05-14T18:40:35.384Z,19
2023-05-14T18:45:51.650Z,20
2023-05-14T18:51:07.069Z,20
2023-05-14T18:56:21.922Z,20
2023-05-14T19:01:36.879Z,21
2023-05-14T19:06:52.969Z,21
2023-05-14T19:12:08.529Z,21
2023-05-14T19:17:23.423Z,21
2023-05-14T19:22:39.584Z,22
2023-05-14T19:27:55.718Z,22
2023-05-14T19:33:12.056Z,22
2023-05-14T19:38:28.008Z,22
2023-05-14T19:43:44.166Z,23
2023-05-14T19:48:59.051Z,23
2023-05-14T19:54:13.923Z,23
2023-05-14T19:59:29.508Z,23
2023-05-14T20:04:45.636Z,23
2023-05-14T20:10:01.889Z,23
2023-05-14T20:15:16.705Z,23
2023-05-14T20:20:34.074Z,23
2023-05-14T20:25:47.067Z,24
2023-05-14T21:18:29.707Z,25
2023-05-14T21:23:39.709Z,25
2023-05-14T21:28:54.578Z,25
2023-05-14T21:34:10.734Z,25
2023-05-14T21:39:26.247Z,25
2023-05-14T21:44:42.455Z,25
2023-05-14T21:49:57.285Z,26
2023-05-14T21:55:12.210Z,26
2023-05-14T22:00:27.045Z,26
2023-05-14T22:05:41.945Z,26
2023-05-14T22:10:58.119Z,26
2023-05-14T22:16:14.656Z,26
2023-05-14T22:21:31.042Z,27
2023-05-14T22:26:46.608Z,27
2023-05-14T22:32:00.817Z,27
2023-05-14T22:37:15.698Z,27
2023-05-14T22:42:30.564Z,27
2023-05-14T22:47:45.590Z,27
2023-05-14T22:53:01.601Z,27
2023-05-14T22:58:16.533Z,27
2023-05-14T23:03:32.631Z,27
2023-05-14T23:08:47.528Z,27
2023-05-14T23:14:03.106Z,28
2023-05-14T23:19:37.281Z,28
2023-05-14T23:24:52.024Z,28
2023-05-14T23:30:22.896Z,28
2023-05-14T23:35:38.453Z,28
2023-05-14T23:40:53.935Z,28
2023-05-14T23:46:09.569Z,28
2023-05-14T23:51:25.629Z,28
2023-05-14T23:56:41.140Z,28
